Time;durP1;ratioP1;P1;durP2;ratioP2;P2;SDS_P1;SDS_P2;PMS_P1;PMS_P2;Temp;Humidity;BMP_temperature;BMP_pressure;BME280_temperature;BME280_humidity;BME280_pressure;Samples;Min_cycle;Max_cycle;Signal;HPM_P1;HPM_P2
2022/10/16 00:01:56;;;;;;;9.00;4.15;;;;;;;-148.88;100.00;75279.59;4979056;28;20133;-83
2022/10/16 00:04:21;;;;;;;6.53;4.18;;;;;;;-148.88;100.00;75277.59;4977413;28;20018;-83
2022/10/16 00:06:47;;;;;;;9.70;4.10;;;;;;;-148.88;100.00;75279.59;4977808;28;20485;-83
2022/10/16 00:09:13;;;;;;;7.22;4.10;;;;;;;-148.88;100.00;75289.75;4977330;28;20029;-84
2022/10/16 00:11:40;;;;;;;7.15;4.18;;;;;;;-148.88;100.00;75281.66;4976506;28;20077;-83
2022/10/16 00:14:10;;;;;;;7.18;4.15;;;;;;;-148.88;100.00;75281.66;4977010;28;20048;-84
2022/10/16 00:16:36;;;;;;;6.93;4.07;;;;;;;-148.88;100.00;75287.72;4975314;28;20041;-83
2022/10/16 00:19:01;;;;;;;6.82;3.70;;;;;;;-148.88;100.00;75285.69;4975348;28;20019;-84
2022/10/16 00:21:29;;;;;;;8.88;3.85;;;;;;;-148.88;100.00;75279.59;4976678;28;20515;-84
2022/10/16 00:24:01;;;;;;;7.20;3.55;;;;;;;-148.88;100.00;75289.75;4976533;28;20462;-83
2022/10/16 00:26:28;;;;;;;7.40;3.97;;;;;;;-148.88;100.00;75295.84;4976727;28;20038;-83
2022/10/16 00:28:53;;;;;;;5.68;3.60;;;;;;;-148.88;100.00;75301.94;4976615;28;20451;-83
2022/10/16 00:31:21;;;;;;;5.30;3.88;;;;;;;-148.88;100.00;75297.88;4976294;28;20062;-83
2022/10/16 00:33:46;;;;;;;7.53;3.88;;;;;;;-148.88;100.00;75285.69;4976393;28;20109;-83
2022/10/16 00:36:15;;;;;;;10.63;3.97;;;;;;;-148.88;100.00;75289.75;4975691;28;20062;-83
2022/10/16 00:38:40;;;;;;;6.28;3.83;;;;;;;-148.88;100.00;75291.78;4975062;28;20026;-83
2022/10/16 00:41:07;;;;;;;9.57;3.95;;;;;;;-148.88;100.00;75303.97;4975950;28;20104;-83
2022/10/16 00:43:34;;;;;;;4.72;3.50;;;;;;;-148.88;100.00;75289.75;4975761;28;20125;-83
2022/10/16 00:46:02;;;;;;;6.78;3.42;;;;;;;-148.88;100.00;75293.81;4974483;28;20022;-83
2022/10/16 00:48:27;;;;;;;4.82;3.38;;;;;;;-148.88;100.00;75293.81;4974147;28;20473;-83
2022/10/16 00:50:53;;;;;;;6.35;3.80;;;;;;;-148.88;100.00;75285.69;4974441;28;20085;-82
2022/10/16 00:53:19;;;;;;;8.13;3.85;;;;;;;-148.88;100.00;75285.69;4975679;28;20392;-83
2022/10/16 00:55:45;;;;;;;5.28;3.30;;;;;;;-148.88;100.00;75293.81;4973963;28;20082;-83
2022/10/16 00:58:11;;;;;;;12.32;4.15;;;;;;;-148.88;100.00;75306.00;4974664;28;20027;-83
2022/10/16 01:00:37;;;;;;;5.60;3.25;;;;;;;-148.88;100.00;75314.13;4976109;28;20390;-83
2022/10/16 01:03:31;;;;;;;6.13;3.83;;;;;;;-148.88;100.00;75318.19;4974466;28;20033;-83
2022/10/16 01:06:18;;;;;;;8.77;4.07;;;;;;;-148.88;100.00;75310.06;4974519;28;20076;-82
2022/10/16 01:08:52;;;;;;;6.38;3.67;;;;;;;-148.88;100.00;75314.13;4975770;28;20038;-82
2022/10/16 01:11:29;;;;;;;6.82;4.13;;;;;;;-148.88;100.00;75320.22;4976007;28;20027;-83
2022/10/16 01:14:00;;;;;;;9.65;4.05;;;;;;;-148.88;100.00;75322.25;4976012;28;20058;-83
2022/10/16 01:16:41;;;;;;;6.40;3.50;;;;;;;-148.88;100.00;75328.34;4976151;28;20370;-82
2022/10/16 01:19:13;;;;;;;5.88;3.25;;;;;;;-148.88;100.00;75336.47;4975549;28;20030;-83
2022/10/16 01:21:44;;;;;;;7.65;3.47;;;;;;;-148.88;100.00;75334.44;4975499;28;20031;-82
2022/10/16 01:24:32;;;;;;;8.85;3.85;;;;;;;-148.88;100.00;75324.28;4975742;28;20035;-83
2022/10/16 01:27:02;;;;;;;7.20;3.90;;;;;;;-148.88;100.00;75334.44;4975376;28;20038;-83
2022/10/16 01:29:49;;;;;;;11.13;4.10;;;;;;;-148.88;100.00;75334.44;4974082;28;20073;-83
2022/10/16 01:32:31;;;;;;;11.45;3.70;;;;;;;-148.88;100.00;75338.50;4975032;28;20022;-82
2022/10/16 01:35:21;;;;;;;4.90;3.13;;;;;;;-148.88;100.00;75342.56;4975875;28;20453;-83
2022/10/16 01:37:54;;;;;;;9.98;3.97;;;;;;;-148.88;100.00;75338.50;4974268;28;20493;-83
2022/10/16 01:40:23;;;;;;;9.90;4.25;;;;;;;-148.88;100.00;75342.56;4975274;28;20022;-82
2022/10/16 01:42:56;;;;;;;8.93;3.65;;;;;;;-148.88;100.00;75346.63;4975326;28;20023;-82
2022/10/16 01:45:22;;;;;;;7.18;3.75;;;;;;;-148.88;100.00;75346.63;4990331;28;20385;-82
2022/10/16 01:47:49;;;;;;;7.50;3.65;;;;;;;-148.88;100.00;75342.56;4974992;28;20465;-83
2022/10/16 01:50:17;;;;;;;6.90;3.80;;;;;;;-148.88;100.00;75354.75;4973341;28;20031;-83
2022/10/16 01:52:46;;;;;;;7.00;3.88;;;;;;;-148.88;100.00;75354.75;4973772;28;20022;-83
2022/10/16 01:55:17;;;;;;;8.15;4.00;;;;;;;-148.88;100.00;75354.75;4973882;28;20023;-82
2022/10/16 01:57:47;;;;;;;7.43;3.35;;;;;;;-148.88;100.00;75346.63;4974494;28;20031;-83
2022/10/16 02:00:14;;;;;;;7.05;4.30;;;;;;;-148.88;100.00;75354.75;4974942;28;20105;-82
2022/10/16 02:02:43;;;;;;;7.10;3.42;;;;;;;-148.88;100.00;75344.59;4973883;28;20033;-83
2022/10/16 02:05:32;;;;;;;7.38;3.78;;;;;;;-148.88;100.00;75348.66;4973931;28;20031;-83
2022/10/16 02:07:57;;;;;;;8.05;3.50;;;;;;;-148.88;100.00;75350.69;4973795;28;20038;-85
2022/10/16 02:10:25;;;;;;;9.07;3.95;;;;;;;-148.88;100.00;75350.69;4975087;28;20034;-82
2022/10/16 02:13:22;;;;;;;7.20;3.45;;;;;;;-148.88;100.00;75334.44;4973767;28;20059;-82
2022/10/16 02:15:47;;;;;;;7.88;3.65;;;;;;;-148.88;100.00;75328.34;4973822;28;20058;-83
2022/10/16 02:18:14;;;;;;;7.43;3.28;;;;;;;-148.88;100.00;75314.13;4973645;28;20126;-82
2022/10/16 02:20:55;;;;;;;7.47;4.18;;;;;;;-148.88;100.00;75328.34;4974001;28;20411;-84
2022/10/16 02:23:34;;;;;;;6.97;3.80;;;;;;;-148.88;100.00;75330.38;4973895;28;20545;-83
2022/10/16 02:26:05;;;;;;;7.30;4.07;;;;;;;-148.88;100.00;75338.50;4974705;28;20019;-85
2022/10/16 02:28:41;;;;;;;7.55;3.92;;;;;;;-148.88;100.00;75342.56;4972935;28;20031;-84
2022/10/16 02:31:11;;;;;;;7.82;3.92;;;;;;;-148.88;100.00;75346.63;4974097;28;20069;-85
2022/10/16 02:33:40;;;;;;;6.40;3.85;;;;;;;-148.88;100.00;75346.63;4974392;28;20031;-85
2022/10/16 02:36:07;;;;;;;6.97;4.07;;;;;;;-148.88;100.00;75352.72;4974059;28;20026;-85
2022/10/16 02:38:36;;;;;;;6.50;3.78;;;;;;;-148.88;100.00;75350.69;4974650;28;20034;-85
2022/10/16 02:41:03;;;;;;;7.05;4.10;;;;;;;-148.88;100.00;75366.94;4972818;28;20014;-85
2022/10/16 02:43:29;;;;;;;5.65;3.50;;;;;;;-148.88;100.00;75358.81;4973959;28;20023;-86
2022/10/16 02:45:54;;;;;;;7.30;3.97;;;;;;;-148.88;100.00;75358.81;4972609;28;20077;-85
2022/10/16 02:48:20;;;;;;;7.03;3.50;;;;;;;-148.88;100.00;75362.88;4972423;28;20090;-86
2022/10/16 02:50:45;;;;;;;7.20;4.07;;;;;;;-148.88;100.00;75375.06;4973846;28;20102;-83
2022/10/16 02:53:10;;;;;;;8.50;4.03;;;;;;;-148.88;100.00;75379.13;4973806;28;20049;-85
2022/10/16 02:55:36;;;;;;;8.02;4.15;;;;;;;-148.88;100.00;75391.31;4974283;28;20478;-82
2022/10/16 02:58:01;;;;;;;8.32;4.22;;;;;;;-148.88;100.00;75383.19;4974269;28;20031;-85
2022/10/16 03:00:26;;;;;;;5.68;4.40;;;;;;;-148.88;100.00;75387.25;4974151;28;20027;-85
2022/10/16 03:02:52;;;;;;;7.72;4.55;;;;;;;-148.88;100.00;75395.38;4991444;28;20490;-84
2022/10/16 03:05:17;;;;;;;7.55;4.75;;;;;;;-148.88;100.00;75387.25;4976192;28;20034;-84
2022/10/16 03:07:43;;;;;;;8.90;4.68;;;;;;;-148.88;100.00;75383.19;4976124;28;20034;-85
2022/10/16 03:10:09;;;;;;;10.93;4.63;;;;;;;-148.88;100.00;75399.44;4976229;28;20089;-85
2022/10/16 03:12:34;;;;;;;8.52;4.50;;;;;;;-148.88;100.00;75395.38;4975945;28;20031;-86
2022/10/16 03:15:00;;;;;;;5.70;4.20;;;;;;;-148.88;100.00;75395.38;4975861;28;20026;-83
2022/10/16 03:17:26;;;;;;;6.05;4.30;;;;;;;-148.88;100.00;75403.50;4975816;28;20051;-84
2022/10/16 03:19:51;;;;;;;7.68;4.10;;;;;;;-148.88;100.00;75397.41;4977304;28;20544;-85
2022/10/16 03:22:16;;;;;;;8.38;4.25;;;;;;;-148.88;100.00;75387.25;4977619;28;20035;-85
2022/10/16 03:24:42;;;;;;;7.13;3.85;;;;;;;-148.88;100.00;75395.38;4976046;28;20030;-84
2022/10/16 03:27:08;;;;;;;9.38;4.00;;;;;;;-148.88;100.00;75391.31;4977337;28;20625;-84
2022/10/16 03:29:33;;;;;;;7.05;3.97;;;;;;;-148.88;100.00;75383.19;4977323;28;20034;-83
2022/10/16 03:32:00;;;;;;;5.68;3.88;;;;;;;-148.88;100.00;75373.03;4977398;28;20030;-84
2022/10/16 03:34:26;;;;;;;6.55;3.90;;;;;;;-148.88;100.00;75371.00;4977145;28;20030;-82
2022/10/16 03:36:52;;;;;;;5.82;3.80;;;;;;;-148.88;100.00;75385.22;4977288;28;20077;-86
2022/10/16 03:39:17;;;;;;;6.75;3.70;;;;;;;-148.88;100.00;75381.16;4975863;28;20030;-83
2022/10/16 03:41:43;;;;;;;5.90;3.67;;;;;;;-148.88;100.00;75375.06;4977505;28;20023;-84
2022/10/16 03:44:08;;;;;;;5.93;3.70;;;;;;;-148.88;100.00;75383.19;4977085;28;20117;-82
2022/10/16 03:46:34;;;;;;;7.57;4.15;;;;;;;-148.88;100.00;75383.19;4977018;28;20030;-83
2022/10/16 03:48:59;;;;;;;8.73;3.88;;;;;;;-148.88;100.00;75395.38;4975666;28;20026;-84
2022/10/16 03:51:24;;;;;;;6.35;3.70;;;;;;;-148.88;100.00;75391.31;4976938;28;20114;-84
2022/10/16 03:53:50;;;;;;;5.90;3.65;;;;;;;-148.88;100.00;75391.31;4976558;28;20026;-85
2022/10/16 03:56:15;;;;;;;6.10;3.85;;;;;;;-148.88;100.00;75391.31;4976944;28;20093;-85
2022/10/16 03:58:41;;;;;;;7.18;3.90;;;;;;;-148.88;100.00;75385.22;4975980;28;20363;-84
2022/10/16 04:01:07;;;;;;;6.22;3.80;;;;;;;-148.88;100.00;75385.22;4976586;28;20054;-84
2022/10/16 04:03:32;;;;;;;6.20;4.15;;;;;;;-148.88;100.00;75379.13;4976476;28;20038;-85
2022/10/16 04:05:58;;;;;;;8.68;4.60;;;;;;;-148.88;100.00;75381.16;4976699;28;20073;-84
2022/10/16 04:08:23;;;;;;;5.10;4.20;;;;;;;-148.88;100.00;75393.34;4996272;23;20034;-83
2022/10/16 04:10:49;;;;;;;6.18;3.80;;;;;;;-148.88;100.00;75383.19;4980345;28;20442;-86
2022/10/16 04:13:14;;;;;;;7.47;4.18;;;;;;;-148.88;100.00;75383.19;4978667;28;20074;-83
2022/10/16 04:15:40;;;;;;;6.50;4.07;;;;;;;-148.88;100.00;75383.19;4977551;28;20078;-83
2022/10/16 04:18:05;;;;;;;7.43;4.38;;;;;;;-148.88;100.00;75391.31;4977288;28;20050;-83
2022/10/16 04:20:31;;;;;;;7.50;4.18;;;;;;;-148.88;100.00;75397.41;4976747;28;20018;-85
2022/10/16 04:22:57;;;;;;;5.68;4.05;;;;;;;-148.88;100.00;75391.31;4976635;28;20026;-83
2022/10/16 04:25:22;;;;;;;6.07;3.72;;;;;;;-148.88;100.00;75403.50;4975412;28;20035;-85
2022/10/16 04:27:47;;;;;;;5.72;3.60;;;;;;;-148.88;100.00;75415.69;4976788;28;20019;-85
2022/10/16 04:30:13;;;;;;;6.53;4.03;;;;;;;-148.88;100.00;75407.56;4976273;28;20029;-84
2022/10/16 04:32:39;;;;;;;6.03;3.67;;;;;;;-148.88;100.00;75407.56;4976939;28;20030;-86
2022/10/16 04:35:04;;;;;;;7.05;4.03;;;;;;;-148.88;100.00;75413.66;4975752;28;20035;-85
2022/10/16 04:37:31;;;;;;;7.30;3.78;;;;;;;-148.88;100.00;75413.66;4976386;28;20563;-84
2022/10/16 04:39:56;;;;;;;6.05;3.78;;;;;;;-148.88;100.00;75409.59;4977401;28;20473;-83
2022/10/16 04:42:22;;;;;;;6.00;3.60;;;;;;;-148.88;100.00;75411.63;4977356;28;20037;-83
2022/10/16 04:44:48;;;;;;;6.88;4.00;;;;;;;-148.88;100.00;75413.66;4975769;28;20505;-85
2022/10/16 04:47:13;;;;;;;4.90;3.40;;;;;;;-148.88;100.00;75409.59;4977196;28;20058;-84
2022/10/16 04:49:39;;;;;;;6.72;3.45;;;;;;;-148.88;100.00;75409.59;4976125;28;20054;-84
2022/10/16 04:52:04;;;;;;;5.15;3.50;;;;;;;-148.88;100.00;75399.44;4976263;28;20030;-84
2022/10/16 04:54:30;;;;;;;6.53;3.50;;;;;;;-148.88;100.00;75407.56;4976912;28;20023;-84
2022/10/16 04:56:55;;;;;;;7.93;3.25;;;;;;;-148.88;100.00;75403.50;4976034;28;20033;-84
2022/10/16 04:59:22;;;;;;;5.07;3.20;;;;;;;-148.88;100.00;75411.63;4976389;28;20552;-84
2022/10/16 05:01:47;;;;;;;5.03;3.20;;;;;;;-148.88;100.00;75419.75;4974734;28;20066;-85
2022/10/16 05:04:14;;;;;;;5.85;3.47;;;;;;;-148.88;100.00;75425.84;4975112;28;20493;-85
2022/10/16 05:06:40;;;;;;;6.78;2.90;;;;;;;-148.88;100.00;75417.72;4978259;28;20034;-85
2022/10/16 05:09:05;;;;;;;4.82;3.00;;;;;;;-148.88;100.00;75423.81;4974819;28;20112;-85
2022/10/16 05:11:31;;;;;;;4.18;2.92;;;;;;;-148.88;100.00;75425.84;4976541;28;20026;-85
2022/10/16 05:13:56;;;;;;;5.18;2.95;;;;;;;-148.88;100.00;75417.72;4977777;28;20026;-85
2022/10/16 05:16:24;;;;;;;3.63;2.60;;;;;;;-148.88;100.00;75413.66;4980282;28;20027;-85
2022/10/16 05:18:51;;;;;;;5.68;2.88;;;;;;;-148.88;100.00;75411.63;4976845;28;20042;-85
2022/10/16 05:21:16;;;;;;;4.60;2.35;;;;;;;-148.88;100.00;75415.69;4979007;28;20015;-85
2022/10/16 05:23:42;;;;;;;4.28;2.60;;;;;;;-148.88;100.00;75423.81;4977698;28;20026;-85
2022/10/16 05:26:07;;;;;;;4.63;2.60;;;;;;;-148.88;100.00;75423.81;4978426;28;20122;-85
2022/10/16 05:28:33;;;;;;;4.38;2.58;;;;;;;-148.88;100.00;75421.78;4978342;28;20039;-86
2022/10/16 05:30:59;;;;;;;8.13;2.63;;;;;;;-148.88;100.00;75417.72;4976603;28;20056;-86
2022/10/16 05:33:26;;;;;;;4.00;2.40;;;;;;;-148.88;100.00;75411.63;4978923;28;20086;-86
2022/10/16 05:35:51;;;;;;;3.92;2.30;;;;;;;-148.88;100.00;75417.72;4977762;28;20027;-85
2022/10/16 05:38:18;;;;;;;3.28;2.08;;;;;;;-148.88;100.00;75417.72;4975735;28;20027;-86
2022/10/16 05:40:43;;;;;;;4.25;2.20;;;;;;;-148.88;100.00;75427.88;4978284;28;20363;-86
2022/10/16 05:43:08;;;;;;;3.88;2.00;;;;;;;-148.88;100.00;75413.66;4978611;28;20119;-85
2022/10/16 05:45:34;;;;;;;2.55;1.85;;;;;;;-148.88;100.00;75407.56;4978264;28;20031;-85
2022/10/16 05:48:00;;;;;;;3.35;1.80;;;;;;;-148.88;100.00;75411.63;4977459;28;20130;-86
2022/10/16 05:50:26;;;;;;;4.20;2.10;;;;;;;-148.88;100.00;75421.78;4977104;28;20033;-85
2022/10/16 05:52:51;;;;;;;5.72;1.80;;;;;;;-148.88;100.00;75417.72;4978403;28;20085;-86
2022/10/16 05:55:17;;;;;;;4.35;1.80;;;;;;;-148.88;100.00;75431.94;4978329;28;20026;-85
2022/10/16 05:57:42;;;;;;;4.72;1.80;;;;;;;-148.88;100.00;75431.94;4976976;28;20023;-85
2022/10/16 06:00:08;;;;;;;3.90;1.90;;;;;;;-148.88;100.00;75431.94;4978114;28;20105;-85
2022/10/16 06:02:34;;;;;;;4.20;1.60;;;;;;;-148.88;100.00;75423.81;4977621;28;20028;-85
2022/10/16 06:04:59;;;;;;;3.17;1.67;;;;;;;-148.88;100.00;75427.88;4977356;28;20097;-86
2022/10/16 06:07:24;;;;;;;2.25;1.25;;;;;;;-148.88;100.00;75425.84;4978978;28;20038;-85
2022/10/16 06:09:51;;;;;;;3.20;1.50;;;;;;;-148.88;100.00;75411.63;4979516;28;20030;-85
2022/10/16 06:12:17;;;;;;;3.00;1.40;;;;;;;-148.88;100.00;75421.78;4976956;28;20041;-85
2022/10/16 06:14:42;;;;;;;2.10;1.50;;;;;;;-148.88;100.00;75411.63;4976378;28;20027;-85
2022/10/16 06:17:08;;;;;;;2.30;1.33;;;;;;;-148.88;100.00;75409.59;4978704;28;20029;-85
2022/10/16 06:19:33;;;;;;;2.50;1.50;;;;;;;-148.88;100.00;75407.56;4977729;28;20030;-85
2022/10/16 06:21:59;;;;;;;4.55;1.48;;;;;;;-148.88;100.00;75415.69;4978796;28;20117;-85
2022/10/16 06:24:24;;;;;;;2.22;1.30;;;;;;;-148.88;100.00;75415.69;4980132;28;20027;-85
2022/10/16 06:26:53;;;;;;;3.10;1.42;;;;;;;-148.88;100.00;75411.63;4977033;28;20023;-85
2022/10/16 06:29:36;;;;;;;3.17;1.52;;;;;;;-148.88;100.00;75403.50;4976889;28;20026;-84
2022/10/16 06:32:10;;;;;;;2.30;1.00;;;;;;;-148.88;100.00;75407.56;4976793;28;20042;-85
2022/10/16 06:34:44;;;;;;;3.28;1.33;;;;;;;-148.88;100.00;75403.50;4976732;28;20477;-85
2022/10/16 06:37:16;;;;;;;2.13;1.33;;;;;;;-148.88;100.00;75399.44;4994350;28;20034;-85
2022/10/16 06:39:41;;;;;;;2.25;1.13;;;;;;;-148.88;100.00;75403.50;4981170;28;20470;-85
2022/10/16 06:42:06;;;;;;;2.03;1.10;;;;;;;-148.88;100.00;75399.44;4980598;28;20037;-85
2022/10/16 06:44:32;;;;;;;2.70;1.40;;;;;;;-148.88;100.00;75393.34;4979852;28;20027;-85
2022/10/16 06:46:57;;;;;;;4.28;1.50;;;;;;;-148.88;99.52;75403.50;4980773;28;20037;-86
2022/10/16 06:49:22;;;;;;;2.97;1.50;;;;;;;-148.88;99.97;75409.59;4978486;28;20030;-84
2022/10/16 06:51:48;;;;;;;2.45;1.20;;;;;;;-148.88;99.97;75405.53;4978387;28;20510;-84
2022/10/16 06:54:15;;;;;;;2.00;1.30;;;;;;;-148.88;100.00;75405.53;4978679;28;20031;-84
2022/10/16 06:56:40;;;;;;;3.17;1.10;;;;;;;-148.88;98.96;75395.38;4979042;28;20513;-84
2022/10/16 06:59:08;;;;;;;1.65;1.20;;;;;;;-148.88;98.77;75391.31;4978709;28;20038;-84
2022/10/16 07:01:33;;;;;;;2.90;1.20;;;;;;;-148.88;99.12;75385.22;4978562;28;20112;-85
2022/10/16 07:04:00;;;;;;;4.25;1.40;;;;;;;-148.88;98.82;75387.25;4979265;28;20498;-83
2022/10/16 07:06:27;;;;;;;3.13;1.27;;;;;;;-148.88;98.94;75389.28;4980410;28;20027;-84
2022/10/16 07:08:52;;;;;;;2.75;1.40;;;;;;;-148.88;98.84;75391.31;4980482;28;20034;-84
2022/10/16 07:11:20;;;;;;;2.97;1.38;;;;;;;-148.88;98.60;75377.09;4980136;28;20104;-84
2022/10/16 07:13:47;;;;;;;3.78;1.15;;;;;;;-148.88;98.01;75371.00;4980124;28;20037;-84
2022/10/16 07:16:15;;;;;;;2.92;1.70;;;;;;;-148.88;97.92;75362.88;4980568;28;20026;-84
2022/10/16 07:18:42;;;;;;;2.70;1.20;;;;;;;-148.88;97.57;75358.81;4980251;28;20031;-82
2022/10/16 07:21:20;;;;;;;3.30;1.05;;;;;;;-148.88;97.42;75366.94;4978630;28;20026;-84
2022/10/16 07:23:50;;;;;;;2.53;1.20;;;;;;;-148.88;97.39;75362.88;4978048;28;20081;-84
2022/10/16 07:26:15;;;;;;;2.65;1.38;;;;;;;-148.88;97.44;75362.88;4978536;28;20046;-83
2022/10/16 07:28:42;;;;;;;2.80;1.20;;;;;;;-148.88;97.79;75364.91;4979071;28;20029;-83
2022/10/16 07:31:11;;;;;;;3.47;1.58;;;;;;;-148.88;97.62;75362.88;4979256;28;20022;-83
2022/10/16 07:33:38;;;;;;;4.05;1.40;;;;;;;-148.88;96.67;75358.81;4978433;28;20098;-83
2022/10/16 07:36:04;;;;;;;2.28;1.25;;;;;;;-148.88;96.24;75350.69;4978259;28;20031;-83
2022/10/16 07:38:29;;;;;;;2.15;1.10;;;;;;;-148.88;96.96;75358.81;4979394;28;20072;-84
2022/10/16 07:41:00;;;;;;;4.32;1.45;;;;;;;-148.88;97.39;75375.06;4978839;28;20022;-85
2022/10/16 07:43:26;;;;;;;3.67;1.25;;;;;;;-148.88;97.01;75379.13;4979454;28;20400;-83
2022/10/16 07:45:52;;;;;;;2.97;1.17;;;;;;;-148.88;97.58;75401.47;4978708;28;20037;-84
2022/10/16 07:48:20;;;;;;;3.38;1.33;;;;;;;-148.88;96.86;75399.44;4977526;28;20110;-84
2022/10/16 07:50:45;;;;;;;4.25;1.33;;;;;;;-148.88;97.14;75407.56;4979723;28;20461;-82
2022/10/16 07:53:11;;;;;;;2.63;1.42;;;;;;;-148.88;97.66;75417.72;4980831;28;20079;-83
2022/10/16 07:55:37;;;;;;;3.15;1.33;;;;;;;-148.88;97.77;75423.81;4981968;28;20031;-83
2022/10/16 07:58:02;;;;;;;2.05;1.10;;;;;;;-148.88;97.93;75431.94;4981918;28;20027;-83
2022/10/16 08:00:28;;;;;;;3.95;1.65;;;;;;;-148.88;97.27;75411.63;4979163;28;20158;-84
2022/10/16 08:03:00;;;;;;;4.72;1.50;;;;;;;-148.88;97.27;75411.63;4977601;28;20029;-82
2022/10/16 08:05:31;;;;;;;4.80;1.42;;;;;;;-148.88;97.56;75399.44;4979495;28;20081;-84
2022/10/16 08:08:02;;;;;;;3.97;2.40;;;;;;;-148.88;97.49;75403.50;4984360;28;20082;-85
2022/10/16 08:10:28;;;;;;;4.47;2.22;;;;;;;-148.88;97.05;75401.47;4990532;28;20045;-85
2022/10/16 08:12:57;;;;;;;5.25;2.10;;;;;;;-148.88;96.45;75393.34;4986362;28;20031;-85
2022/10/16 08:15:22;;;;;;;3.38;1.50;;;;;;;-148.88;97.00;75407.56;4984099;28;20043;-85
2022/10/16 08:18:09;;;;;;;4.88;1.63;;;;;;;-148.88;97.03;75387.25;4985065;28;20445;-86
2022/10/16 08:20:37;;;;;;;3.10;1.50;;;;;;;-148.88;97.01;75395.38;4984953;28;20023;-85
2022/10/16 08:23:02;;;;;;;4.20;1.45;;;;;;;-148.88;97.13;75391.31;4983212;28;20030;-84
2022/10/16 08:25:37;;;;;;;3.13;1.70;;;;;;;-148.88;95.91;75383.19;4981645;28;20541;-84
2022/10/16 08:28:05;;;;;;;2.20;1.40;;;;;;;-148.88;96.45;75383.19;4981761;28;20031;-84
2022/10/16 08:30:31;;;;;;;2.67;1.52;;;;;;;-148.88;96.55;75373.03;4982385;28;20023;-86
2022/10/16 08:33:01;;;;;;;3.15;1.38;;;;;;;-148.88;95.96;75362.88;4981331;28;20560;-86
2022/10/16 08:35:29;;;;;;;3.13;1.58;;;;;;;-148.88;96.20;75350.69;4981564;28;20029;-84
2022/10/16 08:37:55;;;;;;;3.60;1.67;;;;;;;-148.88;95.03;75348.66;4977900;28;20033;-83
2022/10/16 08:40:36;;;;;;;5.25;1.75;;;;;;;-148.88;95.71;75334.44;4977240;28;20019;-84
2022/10/16 08:43:30;;;;;;;3.85;1.40;;;;;;;-148.88;93.75;75328.34;4993551;28;20466;-84
2022/10/16 08:46:30;;;;;;;7.53;1.90;;;;;;;-148.88;93.63;75314.13;4971910;28;20050;-84
2022/10/16 08:49:01;;;;;;;3.95;1.55;;;;;;;-148.88;92.70;75316.16;4979702;28;20034;-84
2022/10/16 08:51:34;;;;;;;3.38;1.77;;;;;;;-148.88;93.70;75303.97;4981180;28;20031;-84
2022/10/16 08:54:04;;;;;;;2.08;1.30;;;;;;;-148.88;92.88;75297.88;4978341;28;20031;-85
2022/10/16 08:56:30;;;;;;;3.65;1.40;;;;;;;-148.88;92.01;75277.59;4978852;28;20034;-84
2022/10/16 08:58:58;;;;;;;3.70;1.52;;;;;;;-148.88;91.68;75269.47;4993288;28;20037;-83
2022/10/16 09:01:37;;;;;;;3.60;1.60;;;;;;;-148.88;91.95;75249.16;4978753;28;20456;-84
2022/10/16 09:04:39;;;;;;;3.83;1.35;;;;;;;-148.88;90.23;75261.34;4993613;28;20023;-84
2022/10/16 09:07:17;;;;;;;2.70;1.50;;;;;;;-148.88;89.48;75257.28;4978881;28;20030;-84
2022/10/16 09:10:00;;;;;;;4.05;1.60;;;;;;;-148.88;88.41;75251.19;4978857;28;20026;-82
2022/10/16 09:12:56;;;;;;;4.55;1.42;;;;;;;-148.88;88.10;75241.03;4977761;28;20038;-82
2022/10/16 09:15:49;;;;;;;2.75;1.55;;;;;;;-148.88;86.90;75257.28;4966605;28;20493;-83
2022/10/16 09:18:39;;;;;;;4.95;1.88;;;;;;;-148.88;88.09;75265.41;4976249;28;20034;-83
2022/10/16 09:21:19;;;;;;;3.40;1.52;;;;;;;-148.88;88.20;75277.59;4979264;28;20023;-84
2022/10/16 09:23:45;;;;;;;4.15;1.50;;;;;;;-148.88;87.98;75253.22;4993503;28;20121;-84
2022/10/16 09:26:17;;;;;;;3.85;1.77;;;;;;;-148.88;87.91;75243.06;4977365;28;20108;-84
2022/10/16 09:28:43;;;;;;;3.50;1.67;;;;;;;-148.88;86.05;75255.25;4976656;28;20023;-83
2022/10/16 09:31:20;;;;;;;4.70;1.77;;;;;;;-148.88;84.83;75253.22;4994302;28;20037;-83
2022/10/16 09:33:52;;;;;;;3.00;1.45;;;;;;;-148.88;86.96;75255.25;4977642;28;20477;-84
2022/10/16 09:36:19;;;;;;;3.38;1.50;;;;;;;-148.88;85.67;75257.28;4977702;28;20027;-83
2022/10/16 09:38:44;;;;;;;3.60;1.23;;;;;;;-148.88;83.45;75249.16;4978465;28;20034;-84
2022/10/16 09:41:17;;;;;;;4.25;1.48;;;;;;;-148.88;82.64;75245.09;4976640;28;20019;-82
2022/10/16 09:43:46;;;;;;;7.68;1.63;;;;;;;-148.88;83.14;75257.28;4978059;28;20031;-84
2022/10/16 09:46:32;;;;;;;3.47;1.60;;;;;;;-148.88;84.36;75269.47;4977174;28;20037;-83
2022/10/16 09:49:00;;;;;;;3.55;1.48;;;;;;;-148.88;83.65;75253.22;4976627;28;20389;-83
2022/10/16 09:51:31;;;;;;;5.85;2.35;;;;;;;-148.88;82.80;75271.50;4975688;28;20114;-82
2022/10/16 09:54:12;;;;;;;4.50;1.63;;;;;;;-148.88;82.54;75253.22;4975248;28;20034;-83
2022/10/16 09:56:41;;;;;;;7.00;3.50;;;;;;;-148.88;83.06;75243.06;4976326;28;20027;-82
2022/10/16 09:59:33;;;;;;;4.68;1.35;;;;;;;-148.88;81.63;75241.03;4975684;28;20030;-81
2022/10/16 10:02:11;;;;;;;3.35;1.52;;;;;;;-148.88;79.51;75224.78;4976863;28;20031;-83
2022/10/16 10:04:49;;;;;;;4.60;1.40;;;;;;;-148.88;80.33;75222.75;4977070;28;20026;-83
2022/10/16 10:07:39;;;;;;;8.07;1.70;;;;;;;-148.88;79.74;75216.66;4978197;28;20392;-84
2022/10/16 10:10:06;;;;;;;5.13;1.50;;;;;;;-148.88;79.55;75236.97;5042347;23;20043;-75
2022/10/16 10:12:34;;;;;;;6.78;1.42;;;;;;;-148.88;79.29;75224.78;4954338;28;20023;-75
2022/10/16 10:15:22;;;;;;;3.35;1.48;;;;;;;-148.88;78.63;75216.66;4954304;28;20023;-75
2022/10/16 10:17:56;;;;;;;8.30;1.73;;;;;;;-148.88;78.23;75212.59;4954275;28;20038;-75
2022/10/16 10:20:35;;;;;;;4.40;1.33;;;;;;;-148.88;77.24;75224.78;4954497;28;20023;-74
2022/10/16 10:23:24;;;;;;;3.88;1.30;;;;;;;-148.88;77.85;75226.81;4954319;28;20034;-74
2022/10/16 10:26:04;;;;;;;4.80;1.30;;;;;;;-148.88;78.36;75239.00;4954268;28;20098;-75
2022/10/16 10:28:46;;;;;;;5.80;1.25;;;;;;;-148.88;77.60;75204.47;4954674;28;20081;-74
2022/10/16 10:31:20;;;;;;;3.42;1.17;;;;;;;-148.88;77.21;75163.84;4954522;28;20401;-74
2022/10/16 10:34:01;;;;;;;4.15;1.30;;;;;;;-148.88;76.42;75188.22;4954445;28;20027;-74
2022/10/16 10:36:37;;;;;;;4.47;1.20;;;;;;;-148.88;76.72;75178.06;4954271;28;20023;-75
2022/10/16 10:39:17;;;;;;;4.70;1.15;;;;;;;-148.88;77.27;75180.09;4954139;28;20463;-75
2022/10/16 10:42:16;;;;;;;2.65;1.08;;;;;;;-148.88;76.47;75194.31;4952704;28;20082;-75
2022/10/16 10:44:56;;;;;;;7.45;1.50;;;;;;;-148.88;75.15;75192.28;4954318;28;20054;-75
2022/10/16 10:47:56;;;;;;;4.20;1.10;;;;;;;-148.88;75.40;75171.97;4954109;28;20034;-75
2022/10/16 10:50:35;;;;;;;4.38;1.20;;;;;;;-148.88;74.31;75167.91;4946083;29;20101;-75
2022/10/16 10:53:21;;;;;;;3.17;1.10;;;;;;;-148.88;73.77;75184.16;4954114;28;20047;-75
2022/10/16 10:55:57;;;;;;;3.63;1.00;;;;;;;-148.88;74.70;75174.00;4954337;28;20102;-75
2022/10/16 10:58:51;;;;;;;3.72;1.10;;;;;;;-148.88;75.11;75167.91;4952960;28;20129;-75
2022/10/16 11:01:22;;;;;;;4.03;1.23;;;;;;;-148.88;73.69;75163.84;4954248;28;20075;-76
2022/10/16 11:04:20;;;;;;;3.95;1.55;;;;;;;-148.88;72.05;75109.00;4952933;29;20816;-75
2022/10/16 11:06:51;;;;;;;4.03;1.30;;;;;;;-148.88;71.92;75066.38;4954081;28;20035;-75
2022/10/16 11:09:23;;;;;;;3.22;1.00;;;;;;;-148.88;71.48;75027.78;4952763;28;20078;-75
2022/10/16 11:12:04;;;;;;;4.90;1.15;;;;;;;-148.88;70.48;75044.03;4954236;28;20035;-75
2022/10/16 11:14:48;;;;;;;3.72;1.02;;;;;;;-148.88;68.08;75064.34;4952994;28;20026;-75
2022/10/16 11:17:19;;;;;;;3.05;0.88;;;;;;;-148.88;67.81;75037.94;4954278;28;20023;-75
2022/10/16 11:19:52;;;;;;;2.60;1.00;;;;;;;-148.88;68.21;75074.50;4954444;28;20435;-75
2022/10/16 11:22:41;;;;;;;3.78;1.10;;;;;;;-148.88;67.01;75046.06;4954343;28;20050;-75
2022/10/16 11:25:26;;;;;;;4.15;1.20;;;;;;;-148.88;67.67;75025.75;4957556;28;20039;-75
2022/10/16 11:28:01;;;;;;;3.35;0.90;;;;;;;-148.88;66.41;74995.28;4957756;28;20030;-75